Time;durP1;ratioP1;P1;durP2;ratioP2;P2;SDS_P1;SDS_P2;PMS_P1;PMS_P2;Temp;Humidity;BMP_temperature;BMP_pressure;BME280_temperature;BME280_humidity;BME280_pressure;Samples;Min_cycle;Max_cycle;Signal;HPM_P1;HPM_P2
2023/09/08 00:02:27;;;;;;;8.05;5.43;;;18.90;99.90;;;;;;5099804;28;20036;-82
2023/09/08 00:04:55;;;;;;;8.13;5.15;;;18.90;99.90;;;;;;5099116;28;20037;-82
2023/09/08 00:07:21;;;;;;;8.75;5.47;;;18.90;99.90;;;;;;5082588;28;20044;-82
2023/09/08 00:09:48;;;;;;;8.10;5.75;;;18.80;99.90;;;;;;5115463;28;20038;-82
2023/09/08 00:12:15;;;;;;;14.23;6.07;;;18.80;99.90;;;;;;5082537;28;20035;-82
2023/09/08 00:14:42;;;;;;;8.65;5.90;;;18.70;99.90;;;;;;5115234;28;20461;-82
2023/09/08 00:17:09;;;;;;;10.65;5.82;;;18.70;99.90;;;;;;5082297;28;20543;-82
2023/09/08 00:19:36;;;;;;;9.00;6.03;;;18.70;99.90;;;;;;5098951;28;20114;-82
2023/09/08 00:22:05;;;;;;;8.80;6.10;;;18.60;99.90;;;;;;5115474;28;20039;-82
2023/09/08 00:24:32;;;;;;;6.97;5.25;;;18.60;99.90;;;;;;5115753;28;20035;-82
2023/09/08 00:26:59;;;;;;;9.30;5.90;;;18.50;99.90;;;;;;5115358;28;20048;-82
2023/09/08 00:29:26;;;;;;;9.18;5.53;;;18.40;99.90;;;;;;5115318;28;20050;-82
2023/09/08 00:31:52;;;;;;;7.82;5.82;;;18.40;99.90;;;;;;5098258;28;20043;-82
2023/09/08 00:34:19;;;;;;;7.93;5.65;;;18.40;99.90;;;;;;5081896;28;20118;-82
2023/09/08 00:36:46;;;;;;;12.38;6.55;;;18.30;99.90;;;;;;5081530;28;20040;-82
2023/09/08 00:39:12;;;;;;;10.55;5.90;;;18.30;99.90;;;;;;5098427;28;20506;-82
2023/09/08 00:41:39;;;;;;;9.73;5.78;;;18.30;99.90;;;;;;5080980;28;20492;-82
2023/09/08 00:44:08;;;;;;;8.88;6.05;;;18.20;99.90;;;;;;5098045;28;20380;-82
2023/09/08 00:46:35;;;;;;;9.82;6.03;;;18.20;99.90;;;;;;5082697;28;20043;-82
2023/09/08 00:49:02;;;;;;;8.80;5.88;;;18.10;99.90;;;;;;5114584;28;20047;-82
2023/09/08 00:51:29;;;;;;;8.68;6.18;;;18.10;99.90;;;;;;5115263;28;20081;-82
2023/09/08 00:53:56;;;;;;;8.35;5.57;;;18.00;99.90;;;;;;5097537;28;20100;-83
2023/09/08 00:56:23;;;;;;;7.18;5.50;;;18.00;99.90;;;;;;5098072;28;20043;-83
2023/09/08 00:58:50;;;;;;;10.55;5.82;;;18.00;99.90;;;;;;5114616;28;20040;-83
2023/09/08 01:01:17;;;;;;;9.18;5.85;;;17.90;99.90;;;;;;5081450;28;20457;-83
2023/09/08 01:03:44;;;;;;;9.15;6.57;;;17.90;99.90;;;;;;5081487;28;20047;-83
2023/09/08 01:06:11;;;;;;;7.53;5.38;;;17.90;99.90;;;;;;5081756;28;20047;-83
2023/09/08 01:08:38;;;;;;;9.32;6.22;;;17.80;99.90;;;;;;5098069;28;20040;-82
2023/09/08 01:11:06;;;;;;;9.20;5.60;;;17.80;99.90;;;;;;5080994;28;20043;-83
2023/09/08 01:13:33;;;;;;;9.77;5.68;;;17.70;99.90;;;;;;5097931;28;20421;-83
2023/09/08 01:15:59;;;;;;;8.65;5.95;;;17.70;99.90;;;;;;5097505;28;20189;-83
2023/09/08 01:18:26;;;;;;;9.45;5.63;;;17.70;99.90;;;;;;5114663;28;20560;-83
2023/09/08 01:21:30;;;;;;;7.57;5.50;;;17.60;99.90;;;;;;5114457;28;20062;-83
2023/09/08 01:24:26;;;;;;;8.52;5.50;;;17.60;99.90;;;;;;5114039;28;20046;-83
2023/09/08 01:26:53;;;;;;;8.48;5.70;;;17.50;99.90;;;;;;5114179;28;20040;-83
2023/09/08 01:29:23;;;;;;;10.63;5.80;;;17.50;99.90;;;;;;5080775;28;20044;-86
2023/09/08 01:31:50;;;;;;;9.43;6.05;;;17.50;99.90;;;;;;5097655;28;20470;-86
2023/09/08 01:34:18;;;;;;;9.40;5.90;;;17.40;99.90;;;;;;5114373;28;20046;-86
2023/09/08 01:36:45;;;;;;;10.00;6.50;;;17.40;99.90;;;;;;5114161;28;20126;-86
2023/09/08 01:39:12;;;;;;;8.68;5.85;;;17.40;99.90;;;;;;5080794;28;20036;-87
2023/09/08 01:41:39;;;;;;;9.48;5.88;;;17.30;99.90;;;;;;5080875;28;20046;-86
2023/09/08 01:44:10;;;;;;;10.07;6.28;;;17.40;99.90;;;;;;5113985;28;20427;-86
2023/09/08 01:46:36;;;;;;;11.18;5.95;;;17.30;99.90;;;;;;5097698;28;20046;-87
2023/09/08 01:49:03;;;;;;;12.20;6.18;;;17.30;99.90;;;;;;5080377;28;20036;-86
2023/09/08 01:51:30;;;;;;;11.73;6.13;;;17.30;99.90;;;;;;5080364;28;20044;-87
2023/09/08 01:53:56;;;;;;;9.43;6.00;;;17.30;99.90;;;;;;5097026;28;20123;-86
2023/09/08 01:56:23;;;;;;;9.80;6.13;;;17.30;99.90;;;;;;5080977;28;20130;-86
2023/09/08 01:58:50;;;;;;;7.63;6.28;;;17.20;99.90;;;;;;5080683;28;20043;-87
2023/09/08 02:01:16;;;;;;;10.88;6.25;;;17.20;99.90;;;;;;5096744;28;20079;-87
2023/09/08 02:03:43;;;;;;;11.05;6.43;;;17.20;99.90;;;;;;5080433;28;20054;-87
2023/09/08 02:06:10;;;;;;;10.55;6.68;;;17.20;99.90;;;;;;5080389;28;20043;-87
2023/09/08 02:08:36;;;;;;;9.07;6.18;;;17.10;99.90;;;;;;5097057;28;20781;-86
2023/09/08 02:11:03;;;;;;;8.98;6.45;;;17.10;99.90;;;;;;5096558;28;20127;-87
2023/09/08 02:13:30;;;;;;;10.80;6.50;;;17.00;99.90;;;;;;5113392;28;20047;-86
2023/09/08 02:15:56;;;;;;;10.85;6.63;;;17.00;99.90;;;;;;5079691;28;20138;-85
2023/09/08 02:18:24;;;;;;;9.13;6.05;;;17.00;99.90;;;;;;5080371;28;20055;-86
2023/09/08 02:20:51;;;;;;;9.88;6.25;;;17.00;99.90;;;;;;5080530;28;20043;-86
2023/09/08 02:23:18;;;;;;;9.52;6.40;;;16.90;99.90;;;;;;5080277;28;20399;-86
2023/09/08 02:25:44;;;;;;;12.77;6.65;;;16.80;99.90;;;;;;5080318;28;20100;-86
2023/09/08 02:28:11;;;;;;;9.07;6.28;;;16.90;99.90;;;;;;5079637;28;20040;-86
2023/09/08 02:30:38;;;;;;;10.20;6.47;;;16.80;99.90;;;;;;5096546;28;20392;-86
2023/09/08 02:33:04;;;;;;;9.25;6.80;;;16.80;99.90;;;;;;5096387;28;20483;-86
2023/09/08 02:35:38;;;;;;;8.98;6.65;;;16.70;99.90;;;;;;5079921;28;20039;-86
2023/09/08 02:38:05;;;;;;;9.57;6.88;;;16.70;99.90;;;;;;5130154;28;20050;-86
2023/09/08 02:40:34;;;;;;;12.23;6.55;;;16.70;99.90;;;;;;5096660;28;20052;-86
2023/09/08 02:43:01;;;;;;;10.65;6.68;;;16.60;99.90;;;;;;5113027;28;20499;-85
2023/09/08 02:45:29;;;;;;;9.05;6.60;;;16.60;99.90;;;;;;5113181;28;20046;-86
2023/09/08 02:47:55;;;;;;;9.35;6.68;;;16.50;99.90;;;;;;5113180;28;20040;-86
2023/09/08 02:50:22;;;;;;;14.35;6.82;;;16.50;99.90;;;;;;5096221;28;20557;-86
2023/09/08 02:52:49;;;;;;;9.90;7.10;;;16.50;99.90;;;;;;5113356;28;20391;-86
2023/09/08 02:55:16;;;;;;;14.23;6.93;;;16.50;99.90;;;;;;5095993;28;20036;-86
2023/09/08 02:57:43;;;;;;;10.52;7.10;;;16.40;99.90;;;;;;5079990;28;20039;-86
2023/09/08 03:00:10;;;;;;;13.32;7.13;;;16.40;99.90;;;;;;5113047;28;20083;-86
2023/09/08 03:02:37;;;;;;;8.38;6.50;;;16.40;99.90;;;;;;5113176;28;20043;-86
2023/09/08 03:05:04;;;;;;;9.70;6.93;;;16.30;99.90;;;;;;5082789;28;20044;-85
2023/09/08 03:07:30;;;;;;;14.10;7.75;;;16.30;99.90;;;;;;5133747;28;20256;-86
2023/09/08 03:09:57;;;;;;;10.38;7.13;;;16.30;99.90;;;;;;5083836;28;20046;-86
2023/09/08 03:12:24;;;;;;;10.00;7.05;;;16.30;99.90;;;;;;5083459;28;20035;-86
2023/09/08 03:14:50;;;;;;;12.52;7.60;;;16.20;99.90;;;;;;5084042;28;20050;-86
2023/09/08 03:17:18;;;;;;;11.43;7.38;;;16.20;99.90;;;;;;5083137;28;20048;-86
2023/09/08 03:19:46;;;;;;;9.45;7.05;;;16.20;99.90;;;;;;5083872;28;20031;-87
2023/09/08 03:22:12;;;;;;;10.32;7.65;;;16.20;99.90;;;;;;5083399;28;20181;-86
2023/09/08 03:24:39;;;;;;;13.85;7.43;;;16.10;99.90;;;;;;5116964;28;20534;-86
2023/09/08 03:27:06;;;;;;;11.95;7.70;;;16.10;99.90;;;;;;5083529;28;20135;-86
2023/09/08 03:29:33;;;;;;;9.30;6.95;;;16.10;99.90;;;;;;5116283;28;20042;-86
2023/09/08 03:31:59;;;;;;;14.27;7.78;;;16.10;99.90;;;;;;5083228;28;20035;-86
2023/09/08 03:34:26;;;;;;;10.45;7.32;;;16.00;99.90;;;;;;5082938;28;20032;-86
2023/09/08 03:36:54;;;;;;;10.43;7.30;;;16.00;99.90;;;;;;5079942;28;20491;-87
2023/09/08 03:39:20;;;;;;;10.02;7.30;;;16.00;99.90;;;;;;5079327;28;20036;-86
2023/09/08 03:41:47;;;;;;;11.27;7.63;;;15.90;99.90;;;;;;5063123;28;20408;-86
2023/09/08 03:44:14;;;;;;;16.20;6.93;;;15.90;99.90;;;;;;5089314;28;20131;-86
2023/09/08 03:46:40;;;;;;;9.23;6.70;;;15.90;99.90;;;;;;5133360;28;20043;-86
2023/09/08 03:49:08;;;;;;;10.82;7.43;;;15.80;99.90;;;;;;5116091;28;20042;-86
2023/09/08 03:51:34;;;;;;;11.40;7.72;;;15.80;99.90;;;;;;5083059;28;20032;-86
2023/09/08 03:54:03;;;;;;;11.75;8.02;;;15.80;99.90;;;;;;5082786;28;20122;-86
2023/09/08 03:56:29;;;;;;;11.73;7.80;;;15.80;99.90;;;;;;5116289;28;20118;-86
2023/09/08 03:58:56;;;;;;;11.32;7.70;;;15.70;99.90;;;;;;5083043;28;20130;-86
2023/09/08 04:01:23;;;;;;;10.73;7.72;;;15.70;99.90;;;;;;5099093;28;20089;-86
2023/09/08 04:03:49;;;;;;;12.57;8.70;;;15.70;99.90;;;;;;5099179;28;20067;-86
2023/09/08 04:06:16;;;;;;;11.07;8.23;;;15.70;99.90;;;;;;5082102;28;20100;-86
2023/09/08 04:08:43;;;;;;;10.93;7.35;;;15.70;99.90;;;;;;5082641;28;20043;-86
2023/09/08 04:11:09;;;;;;;11.88;7.47;;;15.70;99.90;;;;;;5099599;28;20043;-86
2023/09/08 04:13:36;;;;;;;11.10;8.00;;;15.60;99.90;;;;;;5082210;28;20079;-86
2023/09/08 04:16:03;;;;;;;10.80;7.82;;;15.60;99.90;;;;;;5082670;28;20040;-86
2023/09/08 04:18:29;;;;;;;13.13;7.55;;;15.60;99.90;;;;;;5082145;28;20052;-86
2023/09/08 04:20:56;;;;;;;11.77;8.07;;;15.60;99.90;;;;;;5098860;28;20047;-86
2023/09/08 04:23:23;;;;;;;11.75;8.05;;;15.60;99.90;;;;;;5115250;28;20040;-86
2023/09/08 04:25:49;;;;;;;12.25;8.05;;;15.60;99.90;;;;;;5082431;28;20035;-86
2023/09/08 04:28:16;;;;;;;10.80;8.13;;;15.60;99.90;;;;;;5098511;28;20043;-85
2023/09/08 04:30:43;;;;;;;13.18;8.20;;;15.50;99.90;;;;;;5082079;28;20050;-86
2023/09/08 04:33:09;;;;;;;14.13;8.95;;;15.60;99.90;;;;;;5098734;28;20038;-86
2023/09/08 04:35:36;;;;;;;13.25;8.70;;;15.60;99.90;;;;;;5098492;28;20038;-86
2023/09/08 04:38:03;;;;;;;10.85;8.30;;;15.50;99.90;;;;;;5081883;28;20039;-86
2023/09/08 04:40:30;;;;;;;13.82;8.45;;;15.50;99.90;;;;;;5081751;28;20043;-86
2023/09/08 04:42:56;;;;;;;14.45;8.90;;;15.50;99.90;;;;;;5081618;28;20438;-86
2023/09/08 04:45:23;;;;;;;12.52;8.73;;;15.40;99.90;;;;;;5098011;28;20550;-85
2023/09/08 04:47:50;;;;;;;13.00;8.23;;;15.50;99.90;;;;;;5097913;28;20397;-86
2023/09/08 04:50:17;;;;;;;11.35;8.15;;;15.40;99.90;;;;;;5082045;28;20040;-86
2023/09/08 04:52:43;;;;;;;16.13;8.75;;;15.40;99.90;;;;;;5081498;28;20037;-86
2023/09/08 04:55:10;;;;;;;11.48;8.30;;;15.40;99.90;;;;;;5115061;28;20100;-86
2023/09/08 04:57:37;;;;;;;12.93;8.80;;;15.40;99.90;;;;;;5098045;28;20122;-86
2023/09/08 05:00:04;;;;;;;11.95;9.05;;;15.40;99.90;;;;;;5081586;28;20133;-86
2023/09/08 05:02:31;;;;;;;13.05;9.23;;;15.40;99.90;;;;;;5097966;28;20086;-86
2023/09/08 05:04:57;;;;;;;14.05;8.55;;;15.40;99.90;;;;;;5098111;28;20503;-87
2023/09/08 05:07:24;;;;;;;12.52;8.82;;;15.30;99.90;;;;;;5098143;28;20441;-86
2023/09/08 05:09:51;;;;;;;14.38;8.63;;;15.30;99.90;;;;;;5081486;28;20036;-86
2023/09/08 05:12:17;;;;;;;13.60;8.90;;;15.30;99.90;;;;;;5081420;28;20167;-86
2023/09/08 05:14:44;;;;;;;11.05;8.45;;;15.30;99.90;;;;;;5081118;28;20034;-86
2023/09/08 05:17:11;;;;;;;10.70;8.48;;;15.30;99.90;;;;;;5080901;28;20083;-86
2023/09/08 05:19:37;;;;;;;11.93;8.95;;;15.30;99.90;;;;;;5097799;28;20159;-86
2023/09/08 05:22:06;;;;;;;11.18;8.55;;;15.30;99.90;;;;;;5081399;28;20048;-86
2023/09/08 05:24:32;;;;;;;12.60;8.88;;;15.30;99.90;;;;;;5097372;28;20040;-86
2023/09/08 05:26:59;;;;;;;14.30;9.23;;;15.30;99.90;;;;;;5114012;28;20042;-86
2023/09/08 05:29:26;;;;;;;12.48;8.48;;;15.30;99.90;;;;;;5097236;28;20043;-85
2023/09/08 05:31:52;;;;;;;12.52;9.15;;;15.30;99.90;;;;;;5081500;28;20042;-86
2023/09/08 05:34:19;;;;;;;13.50;9.60;;;15.30;99.90;;;;;;5080939;28;20040;-86
2023/09/08 05:36:46;;;;;;;13.65;9.68;;;15.30;99.90;;;;;;5097395;28;20043;-86
2023/09/08 05:39:15;;;;;;;12.85;9.43;;;15.30;99.90;;;;;;5080873;28;20078;-86
2023/09/08 05:41:42;;;;;;;13.43;9.02;;;15.30;99.90;;;;;;5093905;28;20040;-86
2023/09/08 05:44:08;;;;;;;14.65;9.50;;;15.30;99.90;;;;;;5094025;28;20043;-86
2023/09/08 05:46:35;;;;;;;13.60;9.82;;;15.30;99.90;;;;;;5093520;28;20051;-86
2023/09/08 05:49:02;;;;;;;14.32;9.98;;;15.30;99.90;;;;;;5077071;28;20040;-86
2023/09/08 05:51:28;;;;;;;13.32;8.57;;;15.40;99.90;;;;;;5076600;28;20075;-86
2023/09/08 05:53:55;;;;;;;13.10;9.15;;;15.40;99.90;;;;;;5077365;28;20094;-86
2023/09/08 05:56:29;;;;;;;12.60;8.50;;;15.40;99.90;;;;;;5093632;28;20039;-86
2023/09/08 05:58:56;;;;;;;12.80;9.27;;;15.50;99.90;;;;;;5093435;28;20510;-86
2023/09/08 06:01:22;;;;;;;14.95;9.80;;;15.50;99.90;;;;;;5076663;28;20044;-86
2023/09/08 06:03:49;;;;;;;16.83;9.23;;;15.60;99.90;;;;;;5076459;28;20051;-86
2023/09/08 06:06:16;;;;;;;13.00;9.02;;;15.60;99.90;;;;;;5093367;28;20097;-86
2023/09/08 06:08:43;;;;;;;17.85;9.05;;;15.70;99.90;;;;;;5109434;28;20048;-86
2023/09/08 06:11:09;;;;;;;12.30;9.13;;;15.80;99.90;;;;;;5112987;28;20037;-86
2023/09/08 06:13:36;;;;;;;12.75;9.02;;;15.80;99.90;;;;;;5076924;28;20127;-85
2023/09/08 06:16:03;;;;;;;14.05;9.10;;;15.90;99.90;;;;;;5093328;28;20131;-86
2023/09/08 06:18:39;;;;;;;16.95;9.52;;;15.90;99.90;;;;;;5076247;28;20078;-85
2023/09/08 06:21:07;;;;;;;12.23;9.20;;;16.00;99.90;;;;;;5093166;28;20036;-85
2023/09/08 06:23:35;;;;;;;12.32;8.82;;;16.00;99.90;;;;;;5092793;28;20042;-85
2023/09/08 06:26:02;;;;;;;14.38;9.68;;;16.10;99.90;;;;;;5109577;28;20099;-85
2023/09/08 06:28:28;;;;;;;13.80;9.60;;;16.20;99.90;;;;;;5109678;28;20040;-85
2023/09/08 06:30:55;;;;;;;15.27;8.60;;;16.30;99.90;;;;;;5092712;28;20044;-85
2023/09/08 06:33:22;;;;;;;12.27;9.10;;;16.30;99.90;;;;;;5092834;28;20075;-85
2023/09/08 06:35:48;;;;;;;11.63;8.45;;;16.40;99.90;;;;;;5076044;28;20467;-85
2023/09/08 06:38:15;;;;;;;13.52;9.10;;;16.50;99.90;;;;;;5092185;28;20557;-85
2023/09/08 06:40:42;;;;;;;19.05;9.55;;;16.60;99.90;;;;;;5092222;28;20070;-84
2023/09/08 06:43:09;;;;;;;14.45;9.25;;;16.60;99.90;;;;;;5092434;28;20036;-85
2023/09/08 06:45:38;;;;;;;16.15;9.00;;;16.70;99.90;;;;;;5109175;28;20562;-84
2023/09/08 06:48:06;;;;;;;11.18;8.15;;;16.80;99.90;;;;;;5092957;28;20044;-86
2023/09/08 06:50:32;;;;;;;15.88;9.38;;;16.90;99.90;;;;;;5093394;28;20476;-88
2023/09/08 06:53:00;;;;;;;12.40;8.73;;;17.00;99.90;;;;;;5094447;28;20093;-86
2023/09/08 06:55:27;;;;;;;13.13;8.55;;;17.10;99.90;;;;;;5096415;28;20035;-87
2023/09/08 06:57:53;;;;;;;12.23;8.80;;;17.20;99.90;;;;;;5113055;28;20046;-87
2023/09/08 07:00:20;;;;;;;12.35;9.40;;;17.30;99.90;;;;;;5079859;28;20893;-86
2023/09/08 07:02:49;;;;;;;15.77;9.00;;;17.40;99.90;;;;;;5079503;28;20395;-86
2023/09/08 07:05:16;;;;;;;15.38;9.18;;;17.50;99.90;;;;;;5079616;28;20491;-86
2023/09/08 07:07:43;;;;;;;11.40;8.63;;;17.60;99.90;;;;;;5129270;28;20448;-85
2023/09/08 07:10:10;;;;;;;15.82;8.98;;;17.80;99.90;;;;;;5079598;28;20173;-85
2023/09/08 07:12:37;;;;;;;13.85;8.90;;;17.90;99.90;;;;;;5096315;28;20047;-82
2023/09/08 07:15:04;;;;;;;15.68;8.52;;;18.00;99.90;;;;;;5095805;28;20047;-84
2023/09/08 07:17:30;;;;;;;14.80;9.00;;;18.10;99.90;;;;;;5082900;28;20056;-83
2023/09/08 07:19:57;;;;;;;12.57;7.72;;;18.20;99.90;;;;;;5112884;28;20402;-85
2023/09/08 07:22:24;;;;;;;13.93;8.65;;;18.40;99.90;;;;;;5080706;28;20038;-86
2023/09/08 07:24:51;;;;;;;11.13;8.27;;;18.50;99.90;;;;;;5079424;28;20511;-83
2023/09/08 07:27:19;;;;;;;14.38;8.27;;;18.60;99.90;;;;;;5112528;28;20042;-83
2023/09/08 07:29:47;;;;;;;15.50;8.68;;;18.80;99.90;;;;;;5095548;28;20036;-83
2023/09/08 07:32:14;;;;;;;15.27;7.97;;;18.90;99.90;;;;;;5095966;28;20479;-83
2023/09/08 07:34:41;;;;;;;10.65;7.53;;;19.00;99.90;;;;;;5079380;28;20126;-83
2023/09/08 07:37:08;;;;;;;12.40;7.90;;;19.20;99.90;;;;;;5112073;28;20040;-83
2023/09/08 07:39:35;;;;;;;13.68;7.57;;;19.30;99.90;;;;;;5112311;28;20040;-83
2023/09/08 07:42:02;;;;;;;14.35;8.25;;;19.40;99.90;;;;;;5095305;28;20104;-83
2023/09/08 07:44:29;;;;;;;13.45;7.35;;;19.50;99.90;;;;;;5095995;28;20040;-83
2023/09/08 07:46:56;;;;;;;11.02;6.93;;;19.70;99.90;;;;;;5111936;28;20050;-83
2023/09/08 07:49:23;;;;;;;10.90;7.05;;;19.80;99.90;;;;;;5096002;28;20043;-83
2023/09/08 07:51:50;;;;;;;11.30;7.07;;;19.90;99.90;;;;;;5115877;28;20035;-83
2023/09/08 07:54:17;;;;;;;11.13;6.85;;;20.10;99.90;;;;;;5099647;28;20035;-83
2023/09/08 07:56:44;;;;;;;9.38;6.35;;;20.20;99.90;;;;;;5116036;28;20130;-83
2023/09/08 07:59:10;;;;;;;10.63;6.00;;;20.40;99.90;;;;;;5082354;28;20039;-83
2023/09/08 08:01:37;;;;;;;9.57;6.47;;;20.50;99.90;;;;;;5082858;28;20039;-83
2023/09/08 08:04:04;;;;;;;9.27;6.25;;;20.70;99.90;;;;;;5115354;28;20036;-83
2023/09/08 08:06:30;;;;;;;8.35;5.85;;;20.90;99.90;;;;;;5099021;28;20182;-83
2023/09/08 08:08:57;;;;;;;9.00;5.55;;;21.00;99.90;;;;;;5115339;28;20049;-83
2023/09/08 08:11:25;;;;;;;8.18;5.90;;;21.20;99.90;;;;;;5082387;28;20122;-83
2023/09/08 08:13:52;;;;;;;8.93;5.78;;;21.30;99.90;;;;;;5082475;28;20134;-82
2023/09/08 08:16:20;;;;;;;9.80;6.22;;;21.40;99.90;;;;;;5115745;28;20159;-83
2023/09/08 08:18:47;;;;;;;9.52;5.80;;;21.60;99.90;;;;;;5095077;28;20492;-83
2023/09/08 08:21:14;;;;;;;8.98;5.68;;;21.70;99.90;;;;;;5094886;28;20147;-83
2023/09/08 08:23:40;;;;;;;7.93;5.50;;;21.80;99.90;;;;;;5078583;28;20119;-83
2023/09/08 08:26:07;;;;;;;8.63;5.07;;;21.90;99.90;;;;;;5078721;28;20043;-83
2023/09/08 08:28:34;;;;;;;8.60;5.15;;;22.00;99.90;;;;;;5095266;28;20032;-84
2023/09/08 08:31:01;;;;;;;10.57;5.80;;;22.10;99.90;;;;;;5094916;28;20036;-84
2023/09/08 08:33:29;;;;;;;9.18;5.40;;;22.30;99.90;;;;;;5111517;28;20040;-83
2023/09/08 08:35:56;;;;;;;10.43;5.05;;;22.40;99.90;;;;;;5078604;28;20044;-83
2023/09/08 08:38:22;;;;;;;9.15;5.50;;;22.60;99.90;;;;;;5078550;28;20043;-83
2023/09/08 08:40:49;;;;;;;11.45;5.30;;;22.60;99.90;;;;;;5078544;28;20047;-83
2023/09/08 08:43:16;;;;;;;7.07;5.05;;;22.80;99.90;;;;;;5111472;28;20404;-83
2023/09/08 08:45:44;;;;;;;9.70;4.90;;;22.90;99.90;;;;;;5094704;28;20044;-83
2023/09/08 08:48:13;;;;;;;7.97;5.47;;;23.00;99.90;;;;;;5111069;28;20040;-84
2023/09/08 08:50:42;;;;;;;8.13;5.28;;;23.10;99.90;;;;;;5111641;28;20028;-83
2023/09/08 08:53:10;;;;;;;7.68;5.07;;;23.20;99.90;;;;;;5111084;28;20511;-83
2023/09/08 08:55:37;;;;;;;7.85;5.07;;;23.30;99.90;;;;;;5094926;28;20036;-84
2023/09/08 08:58:05;;;;;;;6.78;4.78;;;23.40;99.90;;;;;;5077673;28;20108;-83
2023/09/08 09:00:35;;;;;;;10.50;4.75;;;23.50;99.90;;;;;;5110970;28;20043;-84
2023/09/08 09:03:05;;;;;;;10.63;4.95;;;23.60;99.90;;;;;;5110527;28;20036;-84
2023/09/08 09:05:34;;;;;;;14.80;4.97;;;23.70;99.90;;;;;;5094809;28;20059;-84
2023/09/08 09:08:03;;;;;;;10.55;4.60;;;23.80;99.90;;;;;;5094600;28;20046;-83
2023/09/08 09:10:33;;;;;;;7.07;4.63;;;24.00;99.90;;;;;;5094848;28;20047;-84
2023/09/08 09:12:59;;;;;;;7.25;4.88;;;24.10;99.90;;;;;;5127521;28;20036;-83
2023/09/08 09:15:32;;;;;;;7.63;4.30;;;24.20;99.90;;;;;;5077678;28;20503;-84
2023/09/08 09:18:04;;;;;;;8.27;4.78;;;24.30;99.90;;;;;;5094601;28;20799;-83
2023/09/08 09:20:31;;;;;;;7.68;4.70;;;24.40;99.90;;;;;;5128043;28;20092;-83
2023/09/08 09:22:58;;;;;;;6.75;4.70;;;24.50;99.90;;;;;;5110936;28;20506;-84
2023/09/08 09:25:27;;;;;;;6.70;4.72;;;24.60;99.90;;;;;;5077691;28;20036;-84
2023/09/08 09:27:57;;;;;;;6.60;4.38;;;24.70;99.90;;;;;;5102223;28;20040;-84
2023/09/08 09:30:24;;;;;;;9.65;4.40;;;24.80;99.90;;;;;;5110469;28;20135;-83
2023/09/08 09:33:02;;;;;;;7.38;4.63;;;24.90;99.90;;;;;;5094198;28;20488;-84
2023/09/08 09:35:46;;;;;;;9.00;4.30;;;25.00;99.90;;;;;;5127567;28;20089;-84
2023/09/08 09:38:13;;;;;;;7.40;3.97;;;25.20;99.90;;;;;;5126797;28;20061;-81
2023/09/08 09:40:40;;;;;;;7.05;4.53;;;25.30;99.90;;;;;;5093880;28;20408;-81
2023/09/08 09:43:08;;;;;;;6.72;4.20;;;25.40;99.90;;;;;;5110205;28;20040;-81
2023/09/08 09:45:36;;;;;;;7.18;4.18;;;25.50;99.90;;;;;;5110846;28;20489;-81
2023/09/08 09:48:04;;;;;;;9.70;4.30;;;25.50;99.90;;;;;;5127450;28;20151;-81
2023/09/08 09:50:33;;;;;;;7.70;4.47;;;25.70;99.90;;;;;;5109980;28;20698;-81
2023/09/08 09:53:02;;;;;;;7.35;4.13;;;25.80;99.90;;;;;;5110585;28;20090;-81
2023/09/08 09:55:29;;;;;;;6.47;4.40;;;25.90;99.90;;;;;;5094155;28;20081;-81
2023/09/08 09:58:03;;;;;;;6.95;4.22;;;26.00;99.90;;;;;;5093860;28;20040;-81
2023/09/08 10:00:32;;;;;;;6.20;3.77;;;26.10;99.90;;;;;;5111143;28;20047;-81
2023/09/08 10:03:00;;;;;;;6.75;4.07;;;26.10;99.90;;;;;;5127067;28;20504;-81
2023/09/08 10:05:27;;;;;;;7.20;4.03;;;26.30;99.90;;;;;;5093332;28;20047;-81
2023/09/08 10:07:54;;;;;;;8.15;3.97;;;26.30;99.90;;;;;;5093490;28;20040;-81
2023/09/08 10:10:21;;;;;;;5.70;4.22;;;26.30;99.90;;;;;;5109978;28;20039;-81
2023/09/08 10:12:57;;;;;;;5.75;3.90;;;26.40;99.90;;;;;;5109548;28;20373;-81
2023/09/08 10:15:25;;;;;;;7.53;4.43;;;26.50;99.90;;;;;;5109735;28;20036;-81
2023/09/08 10:17:57;;;;;;;9.32;3.92;;;26.50;99.90;;;;;;5110038;28;20055;-81
2023/09/08 10:20:25;;;;;;;8.80;4.20;;;26.60;99.90;;;;;;5109427;28;20051;-81
2023/09/08 10:22:56;;;;;;;6.10;3.72;;;26.60;99.90;;;;;;5126696;28;20112;-81
2023/09/08 10:25:26;;;;;;;6.35;3.92;;;26.70;99.90;;;;;;5126584;28;20047;-81
2023/09/08 10:27:54;;;;;;;5.95;3.83;;;26.80;99.90;;;;;;5110461;28;20036;-81
2023/09/08 10:30:21;;;;;;;4.60;3.60;;;27.00;99.90;;;;;;5092775;28;20046;-81
2023/09/08 10:32:50;;;;;;;5.70;3.88;;;27.00;99.90;;;;;;5093533;28;20051;-81
2023/09/08 10:35:19;;;;;;;7.93;4.38;;;27.10;99.90;;;;;;5109709;28;20093;-81
2023/09/08 10:37:45;;;;;;;7.75;4.03;;;27.20;99.90;;;;;;5110505;28;20079;-81
2023/09/08 10:40:33;;;;;;;7.72;3.65;;;27.30;99.90;;;;;;5076227;28;20099;-81
2023/09/08 10:43:07;;;;;;;6.70;3.72;;;27.30;99.90;;;;;;5111003;28;20043;-81
2023/09/08 10:45:34;;;;;;;4.93;3.53;;;27.40;99.90;;;;;;5109491;28;20153;-81
2023/09/08 10:48:01;;;;;;;8.57;3.92;;;27.50;99.90;;;;;;5092893;28;20480;-81
2023/09/08 10:50:38;;;;;;;8.82;3.70;;;27.40;99.90;;;;;;5092327;28;20042;-81
2023/09/08 10:53:12;;;;;;;5.32;3.83;;;27.50;99.90;;;;;;5093237;28;20093;-81
2023/09/08 10:55:53;;;;;;;9.18;4.35;;;27.50;99.90;;;;;;5109326;28;20044;-81
2023/09/08 10:58:33;;;;;;;7.07;3.90;;;27.50;99.90;;;;;;5093292;28;20058;-81
2023/09/08 11:01:01;;;;;;;5.60;3.88;;;27.60;99.90;;;;;;5125927;28;20080;-81
2023/09/08 11:03:50;;;;;;;6.80;3.83;;;27.60;99.90;;;;;;5092279;28;20048;-81
2023/09/08 11:06:18;;;;;;;10.38;3.80;;;27.60;99.90;;;;;;5109585;28;20083;-81
2023/09/08 11:08:46;;;;;;;7.60;3.53;;;27.60;99.90;;;;;;5076313;28;20503;-81
2023/09/08 11:11:14;;;;;;;6.13;3.72;;;27.70;99.90;;;;;;5109591;28;20825;-81
2023/09/08 11:13:41;;;;;;;7.50;3.90;;;27.80;99.90;;;;;;5109453;28;20040;-81
2023/09/08 11:16:08;;;;;;;5.30;3.70;;;27.80;99.90;;;;;;5126508;28;20094;-81
2023/09/08 11:18:35;;;;;;;5.95;3.72;;;27.90;99.90;;;;;;5109182;28;20091;-81
2023/09/08 11:21:07;;;;;;;5.45;3.55;;;27.90;99.90;;;;;;5076160;28;20497;-81
2023/09/08 11:23:34;;;;;;;6.25;3.83;;;27.90;99.90;;;;;;5109385;28;20496;-81
2023/09/08 11:26:01;;;;;;;4.85;3.53;;;28.00;99.90;;;;;;5112590;28;20101;-81
2023/09/08 11:28:28;;;;;;;5.38;3.70;;;28.10;99.90;;;;;;5113009;28;20047;-82
2023/09/08 11:30:55;;;;;;;6.18;3.63;;;28.20;99.90;;;;;;5080108;28;20472;-81
2023/09/08 11:33:26;;;;;;;5.15;3.53;;;28.30;99.90;;;;;;5096013;28;20185;-82
2023/09/08 11:35:54;;;;;;;6.28;3.42;;;28.30;99.90;;;;;;5113071;28;20492;-81
2023/09/08 11:38:28;;;;;;;5.53;3.42;;;28.40;99.90;;;;;;5112722;28;20123;-82
2023/09/08 11:40:57;;;;;;;6.63;3.72;;;28.40;99.90;;;;;;5096198;28;20043;-81
2023/09/08 11:43:25;;;;;;;7.93;3.88;;;28.40;99.90;;;;;;5112503;28;20385;-82
2023/09/08 11:45:52;;;;;;;5.25;3.50;;;28.50;99.90;;;;;;5096076;28;20082;-81
2023/09/08 11:48:19;;;;;;;8.48;3.50;;;28.50;99.90;;;;;;5112893;28;20068;-82
2023/09/08 11:50:46;;;;;;;6.47;3.70;;;28.60;99.90;;;;;;5112394;28;20044;-81
2023/09/08 11:53:18;;;;;;;7.32;3.20;;;28.60;99.90;;;;;;5079229;28;20036;-81
2023/09/08 11:55:45;;;;;;;4.85;3.40;;;28.70;99.90;;;;;;5096435;28;20089;-81
2023/09/08 11:58:12;;;;;;;8.07;3.72;;;28.70;99.90;;;;;;5096027;28;20044;-81
2023/09/08 12:00:40;;;;;;;6.20;3.80;;;28.70;99.90;;;;;;5095625;28;20130;-81
2023/09/08 12:03:15;;;;;;;9.82;3.65;;;28.70;99.90;;;;;;5079344;28;20090;-81
2023/09/08 12:05:43;;;;;;;5.30;3.42;;;28.70;99.90;;;;;;5095551;28;20036;-81
2023/09/08 12:08:10;;;;;;;5.80;3.30;;;28.70;99.90;;;;;;5112563;28;20036;-81
2023/09/08 12:10:41;;;;;;;5.35;3.20;;;28.70;99.90;;;;;;5112391;28;20036;-81
2023/09/08 12:13:09;;;;;;;5.40;3.25;;;28.70;99.90;;;;;;5112282;28;20040;-81
2023/09/08 12:15:37;;;;;;;8.40;3.40;;;28.70;99.90;;;;;;5095868;28;20075;-82
2023/09/08 12:18:08;;;;;;;6.53;3.58;;;28.70;99.90;;;;;;5129023;28;20055;-81
2023/09/08 12:20:36;;;;;;;5.93;3.70;;;28.90;99.90;;;;;;5112150;28;20051;-81
2023/09/08 12:23:05;;;;;;;5.85;3.55;;;29.00;99.90;;;;;;5095726;28;20407;-81
2023/09/08 12:25:33;;;;;;;5.28;3.60;;;29.00;99.90;;;;;;5112431;28;20050;-81
2023/09/08 12:28:00;;;;;;;4.38;3.20;;;29.00;99.90;;;;;;5079406;28;20040;-81
2023/09/08 12:30:32;;;;;;;6.03;3.47;;;29.00;99.90;;;;;;5095618;28;20076;-81
2023/09/08 12:33:01;;;;;;;7.45;3.70;;;29.10;99.90;;;;;;5096057;28;20044;-81
2023/09/08 12:35:29;;;;;;;6.60;3.38;;;29.10;99.80;;;;;;5128380;28;20040;-82
2023/09/08 12:38:00;;;;;;;5.78;3.20;;;29.00;99.80;;;;;;5095800;28;20058;-81
2023/09/08 12:40:29;;;;;;;5.60;3.60;;;29.00;99.20;;;;;;5095378;28;20039;-81
2023/09/08 12:42:57;;;;;;;5.05;3.17;;;29.00;99.50;;;;;;5128842;28;20035;-81
2023/09/08 12:45:26;;;;;;;5.82;2.83;;;29.00;99.60;;;;;;5095604;28;20555;-81
2023/09/08 12:47:54;;;;;;;7.68;3.60;;;29.00;99.30;;;;;;5111318;28;20047;-81